sensor_id;sensor_type;location;lat;lon;timestamp;P1;durP1;ratioP1;P2;durP2;ratioP2
65924;SDS011;66010;52.084;5.412;2023-07-31T00:01:03;4.00;;;1.40;;
65924;SDS011;66010;52.084;5.412;2023-07-31T00:03:30;5.15;;;1.10;;
65924;SDS011;66010;52.084;5.412;2023-07-31T00:05:56;4.35;;;1.20;;
65924;SDS011;66010;52.084;5.412;2023-07-31T00:08:23;3.22;;;1.13;;
65924;SDS011;66010;52.084;5.412;2023-07-31T00:10:53;3.28;;;1.08;;
65924;SDS011;66010;52.084;5.412;2023-07-31T00:13:19;3.97;;;1.05;;
65924;SDS011;66010;52.084;5.412;2023-07-31T00:15:46;2.28;;;0.98;;
65924;SDS011;66010;52.084;5.412;2023-07-31T00:18:12;4.25;;;1.00;;
65924;SDS011;66010;52.084;5.412;2023-07-31T00:20:39;1.92;;;0.82;;
65924;SDS011;66010;52.084;5.412;2023-07-31T00:23:06;3.47;;;0.93;;
65924;SDS011;66010;52.084;5.412;2023-07-31T00:25:32;2.03;;;0.98;;
65924;SDS011;66010;52.084;5.412;2023-07-31T00:27:59;2.17;;;0.90;;
65924;SDS011;66010;52.084;5.412;2023-07-31T00:30:25;3.35;;;1.02;;
65924;SDS011;66010;52.084;5.412;2023-07-31T00:32:53;5.38;;;1.30;;
65924;SDS011;66010;52.084;5.412;2023-07-31T00:35:20;3.10;;;1.05;;
65924;SDS011;66010;52.084;5.412;2023-07-31T00:37:46;3.33;;;1.30;;
65924;SDS011;66010;52.084;5.412;2023-07-31T00:40:13;5.18;;;1.30;;
65924;SDS011;66010;52.084;5.412;2023-07-31T00:42:40;4.65;;;1.42;;
65924;SDS011;66010;52.084;5.412;2023-07-31T00:45:07;5.32;;;1.52;;
65924;SDS011;66010;52.084;5.412;2023-07-31T00:47:33;7.05;;;1.77;;
65924;SDS011;66010;52.084;5.412;2023-07-31T00:50:00;5.95;;;1.80;;
65924;SDS011;66010;52.084;5.412;2023-07-31T00:52:27;7.25;;;1.90;;
65924;SDS011;66010;52.084;5.412;2023-07-31T00:54:55;6.78;;;2.20;;
65924;SDS011;66010;52.084;5.412;2023-07-31T00:57:21;8.95;;;2.13;;
65924;SDS011;66010;52.084;5.412;2023-07-31T00:59:50;9.25;;;2.25;;
65924;SDS011;66010;52.084;5.412;2023-07-31T01:02:16;9.60;;;2.60;;
65924;SDS011;66010;52.084;5.412;2023-07-31T01:04:44;11.02;;;2.95;;
65924;SDS011;66010;52.084;5.412;2023-07-31T01:07:20;9.90;;;2.88;;
65924;SDS011;66010;52.084;5.412;2023-07-31T01:09:53;11.05;;;3.30;;
65924;SDS011;66010;52.084;5.412;2023-07-31T01:12:23;11.32;;;2.80;;
65924;SDS011;66010;52.084;5.412;2023-07-31T01:15:06;11.40;;;3.10;;
65924;SDS011;66010;52.084;5.412;2023-07-31T01:17:38;13.32;;;3.30;;
65924;SDS011;66010;52.084;5.412;2023-07-31T01:28:11;12.02;;;2.70;;
65924;SDS011;66010;52.084;5.412;2023-07-31T01:30:37;10.68;;;3.13;;
65924;SDS011;66010;52.084;5.412;2023-07-31T01:33:05;11.38;;;2.67;;
65924;SDS011;66010;52.084;5.412;2023-07-31T01:35:34;12.35;;;3.00;;
65924;SDS011;66010;52.084;5.412;2023-07-31T01:40:28;10.85;;;3.33;;
65924;SDS011;66010;52.084;5.412;2023-07-31T01:42:54;11.88;;;3.20;;
65924;SDS011;66010;52.084;5.412;2023-07-31T01:45:21;15.35;;;3.17;;
65924;SDS011;66010;52.084;5.412;2023-07-31T01:47:47;9.05;;;2.90;;
65924;SDS011;66010;52.084;5.412;2023-07-31T01:50:14;9.20;;;3.03;;
65924;SDS011;66010;52.084;5.412;2023-07-31T01:52:40;9.85;;;3.10;;
65924;SDS011;66010;52.084;5.412;2023-07-31T01:55:07;8.95;;;2.90;;
65924;SDS011;66010;52.084;5.412;2023-07-31T01:57:36;10.88;;;3.22;;
65924;SDS011;66010;52.084;5.412;2023-07-31T02:00:03;11.70;;;2.88;;
65924;SDS011;66010;52.084;5.412;2023-07-31T02:02:37;11.23;;;3.55;;
65924;SDS011;66010;52.084;5.412;2023-07-31T02:05:03;9.65;;;3.42;;
65924;SDS011;66010;52.084;5.412;2023-07-31T02:07:30;12.30;;;3.50;;
65924;SDS011;66010;52.084;5.412;2023-07-31T02:09:57;11.93;;;3.08;;
65924;SDS011;66010;52.084;5.412;2023-07-31T02:12:23;9.98;;;3.40;;
65924;SDS011;66010;52.084;5.412;2023-07-31T02:14:50;10.85;;;3.50;;
65924;SDS011;66010;52.084;5.412;2023-07-31T02:17:16;11.70;;;3.70;;
65924;SDS011;66010;52.084;5.412;2023-07-31T02:19:43;13.43;;;3.60;;
65924;SDS011;66010;52.084;5.412;2023-07-31T02:22:09;12.50;;;3.13;;
65924;SDS011;66010;52.084;5.412;2023-07-31T02:24:36;10.70;;;3.13;;
65924;SDS011;66010;52.084;5.412;2023-07-31T02:27:02;10.70;;;2.63;;
65924;SDS011;66010;52.084;5.412;2023-07-31T02:29:29;8.50;;;3.08;;
65924;SDS011;66010;52.084;5.412;2023-07-31T02:31:56;8.57;;;2.78;;
65924;SDS011;66010;52.084;5.412;2023-07-31T02:34:22;7.35;;;2.60;;
65924;SDS011;66010;52.084;5.412;2023-07-31T02:36:49;10.18;;;3.20;;
65924;SDS011;66010;52.084;5.412;2023-07-31T02:39:17;9.25;;;3.05;;
65924;SDS011;66010;52.084;5.412;2023-07-31T02:41:43;9.75;;;2.80;;
65924;SDS011;66010;52.084;5.412;2023-07-31T02:44:10;9.90;;;2.85;;
65924;SDS011;66010;52.084;5.412;2023-07-31T02:46:39;9.57;;;2.97;;
65924;SDS011;66010;52.084;5.412;2023-07-31T02:49:06;9.52;;;2.92;;
65924;SDS011;66010;52.084;5.412;2023-07-31T02:51:32;9.80;;;2.80;;
65924;SDS011;66010;52.084;5.412;2023-07-31T02:53:59;9.95;;;2.92;;
65924;SDS011;66010;52.084;5.412;2023-07-31T02:56:25;10.98;;;2.88;;
65924;SDS011;66010;52.084;5.412;2023-07-31T02:58:52;8.98;;;2.90;;
65924;SDS011;66010;52.084;5.412;2023-07-31T03:01:18;12.45;;;2.90;;
65924;SDS011;66010;52.084;5.412;2023-07-31T03:03:45;9.75;;;2.83;;
65924;SDS011;66010;52.084;5.412;2023-07-31T03:06:12;9.63;;;3.00;;
65924;SDS011;66010;52.084;5.412;2023-07-31T03:08:38;9.30;;;2.97;;
65924;SDS011;66010;52.084;5.412;2023-07-31T03:11:05;8.07;;;2.90;;
65924;SDS011;66010;52.084;5.412;2023-07-31T03:13:34;12.35;;;3.10;;
65924;SDS011;66010;52.084;5.412;2023-07-31T03:16:00;11.50;;;3.20;;
65924;SDS011;66010;52.084;5.412;2023-07-31T03:18:27;12.00;;;3.35;;
65924;SDS011;66010;52.084;5.412;2023-07-31T03:20:54;9.13;;;3.40;;
65924;SDS011;66010;52.084;5.412;2023-07-31T03:23:20;13.95;;;3.70;;
65924;SDS011;66010;52.084;5.412;2023-07-31T03:25:56;12.00;;;3.42;;
65924;SDS011;66010;52.084;5.412;2023-07-31T03:28:27;10.38;;;3.33;;
65924;SDS011;66010;52.084;5.412;2023-07-31T03:30:53;11.35;;;3.45;;
65924;SDS011;66010;52.084;5.412;2023-07-31T03:33:20;9.45;;;3.65;;
65924;SDS011;66010;52.084;5.412;2023-07-31T03:35:46;13.93;;;3.92;;
65924;SDS011;66010;52.084;5.412;2023-07-31T03:38:13;12.55;;;3.60;;
65924;SDS011;66010;52.084;5.412;2023-07-31T03:40:40;11.48;;;3.90;;
65924;SDS011;66010;52.084;5.412;2023-07-31T03:43:06;11.55;;;3.75;;
65924;SDS011;66010;52.084;5.412;2023-07-31T03:45:33;12.57;;;4.50;;
65924;SDS011;66010;52.084;5.412;2023-07-31T03:48:00;11.25;;;4.00;;
65924;SDS011;66010;52.084;5.412;2023-07-31T03:50:26;11.65;;;3.88;;
65924;SDS011;66010;52.084;5.412;2023-07-31T03:52:53;12.55;;;4.03;;
65924;SDS011;66010;52.084;5.412;2023-07-31T03:55:19;11.02;;;3.50;;
65924;SDS011;66010;52.084;5.412;2023-07-31T03:57:48;11.43;;;3.47;;
65924;SDS011;66010;52.084;5.412;2023-07-31T04:00:14;13.40;;;4.20;;
65924;SDS011;66010;52.084;5.412;2023-07-31T04:02:41;9.80;;;3.30;;
65924;SDS011;66010;52.084;5.412;2023-07-31T04:05:11;12.23;;;4.07;;
65924;SDS011;66010;52.084;5.412;2023-07-31T04:07:37;14.00;;;3.80;;
65924;SDS011;66010;52.084;5.412;2023-07-31T04:10:04;12.07;;;3.85;;
65924;SDS011;66010;52.084;5.412;2023-07-31T04:12:31;11.70;;;3.90;;
65924;SDS011;66010;52.084;5.412;2023-07-31T04:14:57;12.73;;;4.03;;
65924;SDS011;66010;52.084;5.412;2023-07-31T04:17:24;14.32;;;3.90;;
65924;SDS011;66010;52.084;5.412;2023-07-31T04:19:50;12.25;;;3.55;;
65924;SDS011;66010;52.084;5.412;2023-07-31T04:22:17;12.25;;;3.63;;
65924;SDS011;66010;52.084;5.412;2023-07-31T04:24:43;11.60;;;3.72;;
65924;SDS011;66010;52.084;5.412;2023-07-31T04:27:10;13.90;;;4.10;;
65924;SDS011;66010;52.084;5.412;2023-07-31T04:29:36;12.32;;;4.43;;
65924;SDS011;66010;52.084;5.412;2023-07-31T04:32:03;12.02;;;4.07;;
65924;SDS011;66010;52.084;5.412;2023-07-31T04:34:30;11.25;;;3.75;;
65924;SDS011;66010;52.084;5.412;2023-07-31T04:36:56;11.75;;;3.95;;
65924;SDS011;66010;52.084;5.412;2023-07-31T04:39:23;11.68;;;3.83;;
65924;SDS011;66010;52.084;5.412;2023-07-31T04:41:49;12.73;;;4.13;;
65924;SDS011;66010;52.084;5.412;2023-07-31T04:44:16;10.80;;;3.70;;
65924;SDS011;66010;52.084;5.412;2023-07-31T04:46:42;13.10;;;3.88;;
65924;SDS011;66010;52.084;5.412;2023-07-31T04:49:10;10.10;;;3.60;;
65924;SDS011;66010;52.084;5.412;2023-07-31T04:51:36;13.10;;;4.32;;
65924;SDS011;66010;52.084;5.412;2023-07-31T04:54:03;12.07;;;4.32;;
65924;SDS011;66010;52.084;5.412;2023-07-31T04:56:29;12.60;;;3.83;;
65924;SDS011;66010;52.084;5.412;2023-07-31T04:58:56;11.15;;;3.65;;
65924;SDS011;66010;52.084;5.412;2023-07-31T05:01:22;10.35;;;3.35;;
65924;SDS011;66010;52.084;5.412;2023-07-31T05:03:49;10.10;;;3.65;;
65924;SDS011;66010;52.084;5.412;2023-07-31T05:06:16;11.15;;;3.72;;
65924;SDS011;66010;52.084;5.412;2023-07-31T05:08:42;10.70;;;3.65;;
65924;SDS011;66010;52.084;5.412;2023-07-31T05:11:09;10.38;;;3.50;;
65924;SDS011;66010;52.084;5.412;2023-07-31T05:13:35;9.40;;;3.63;;
65924;SDS011;66010;52.084;5.412;2023-07-31T05:16:02;12.20;;;3.97;;
65924;SDS011;66010;52.084;5.412;2023-07-31T05:18:29;10.95;;;3.60;;
65924;SDS011;66010;52.084;5.412;2023-07-31T05:20:55;9.63;;;3.33;;
65924;SDS011;66010;52.084;5.412;2023-07-31T05:23:22;13.48;;;3.22;;
65924;SDS011;66010;52.084;5.412;2023-07-31T05:25:49;11.52;;;3.63;;
65924;SDS011;66010;52.084;5.412;2023-07-31T05:28:15;11.30;;;3.90;;
65924;SDS011;66010;52.084;5.412;2023-07-31T05:30:42;11.05;;;3.60;;
65924;SDS011;66010;52.084;5.412;2023-07-31T05:33:08;12.23;;;3.40;;
65924;SDS011;66010;52.084;5.412;2023-07-31T05:35:38;8.98;;;3.50;;
65924;SDS011;66010;52.084;5.412;2023-07-31T05:38:05;10.38;;;3.22;;
65924;SDS011;66010;52.084;5.412;2023-07-31T05:40:34;9.63;;;2.95;;
65924;SDS011;66010;52.084;5.412;2023-07-31T05:43:01;9.00;;;3.25;;
65924;SDS011;66010;52.084;5.412;2023-07-31T05:45:28;9.52;;;3.25;;
65924;SDS011;66010;52.084;5.412;2023-07-31T05:47:54;8.35;;;2.80;;
65924;SDS011;66010;52.084;5.412;2023-07-31T05:50:21;7.60;;;2.60;;
65924;SDS011;66010;52.084;5.412;2023-07-31T05:52:47;8.98;;;3.08;;
65924;SDS011;66010;52.084;5.412;2023-07-31T05:55:14;10.35;;;3.10;;
65924;SDS011;66010;52.084;5.412;2023-07-31T05:57:41;9.13;;;2.42;;
65924;SDS011;66010;52.084;5.412;2023-07-31T06:00:07;6.78;;;2.60;;
65924;SDS011;66010;52.084;5.412;2023-07-31T06:02:34;8.68;;;2.70;;
65924;SDS011;66010;52.084;5.412;2023-07-31T06:05:03;8.07;;;2.75;;
65924;SDS011;66010;52.084;5.412;2023-07-31T06:07:32;7.90;;;2.60;;
65924;SDS011;66010;52.084;5.412;2023-07-31T06:09:59;8.90;;;2.60;;
65924;SDS011;66010;52.084;5.412;2023-07-31T06:12:31;6.75;;;2.63;;
65924;SDS011;66010;52.084;5.412;2023-07-31T06:14:58;18.23;;;3.72;;
65924;SDS011;66010;52.084;5.412;2023-07-31T06:17:24;8.45;;;2.80;;
65924;SDS011;66010;52.084;5.412;2023-07-31T06:19:52;8.70;;;2.70;;
65924;SDS011;66010;52.084;5.412;2023-07-31T06:22:19;8.55;;;3.13;;
65924;SDS011;66010;52.084;5.412;2023-07-31T06:24:46;8.13;;;3.03;;
65924;SDS011;66010;52.084;5.412;2023-07-31T06:27:12;8.35;;;2.50;;
65924;SDS011;66010;52.084;5.412;2023-07-31T06:29:38;6.88;;;2.60;;
65924;SDS011;66010;52.084;5.412;2023-07-31T06:32:05;7.25;;;2.38;;
65924;SDS011;66010;52.084;5.412;2023-07-31T06:34:32;8.23;;;2.63;;
65924;SDS011;66010;52.084;5.412;2023-07-31T06:36:58;7.75;;;2.65;;
65924;SDS011;66010;52.084;5.412;2023-07-31T06:39:25;7.72;;;2.53;;
65924;SDS011;66010;52.084;5.412;2023-07-31T06:41:51;6.80;;;2.65;;
65924;SDS011;66010;52.084;5.412;2023-07-31T06:44:19;7.15;;;2.40;;
65924;SDS011;66010;52.084;5.412;2023-07-31T06:46:46;7.50;;;2.70;;
65924;SDS011;66010;52.084;5.412;2023-07-31T06:49:12;6.68;;;2.60;;
65924;SDS011;66010;52.084;5.412;2023-07-31T06:51:42;5.80;;;2.22;;
65924;SDS011;66010;52.084;5.412;2023-07-31T06:54:10;7.28;;;2.40;;
65924;SDS011;66010;52.084;5.412;2023-07-31T06:56:37;6.88;;;2.58;;
65924;SDS011;66010;52.084;5.412;2023-07-31T06:59:07;6.43;;;2.20;;
65924;SDS011;66010;52.084;5.412;2023-07-31T07:01:34;7.50;;;2.10;;
65924;SDS011;66010;52.084;5.412;2023-07-31T07:04:01;7.18;;;2.45;;
65924;SDS011;66010;52.084;5.412;2023-07-31T07:06:27;6.75;;;2.20;;
65924;SDS011;66010;52.084;5.412;2023-07-31T07:08:55;5.85;;;2.42;;
65924;SDS011;66010;52.084;5.412;2023-07-31T07:11:21;5.63;;;2.17;;
65924;SDS011;66010;52.084;5.412;2023-07-31T07:13:48;5.40;;;1.90;;
65924;SDS011;66010;52.084;5.412;2023-07-31T07:16:15;6.50;;;2.00;;
65924;SDS011;66010;52.084;5.412;2023-07-31T07:18:42;7.93;;;2.22;;
65924;SDS011;66010;52.084;5.412;2023-07-31T07:21:28;4.78;;;2.00;;
65924;SDS011;66010;52.084;5.412;2023-07-31T07:23:54;8.90;;;2.28;;
65924;SDS011;66010;52.084;5.412;2023-07-31T07:26:21;5.32;;;2.05;;
65924;SDS011;66010;52.084;5.412;2023-07-31T07:28:47;5.63;;;1.90;;
65924;SDS011;66010;52.084;5.412;2023-07-31T07:31:14;5.60;;;1.90;;
65924;SDS011;66010;52.084;5.412;2023-07-31T07:33:41;6.53;;;2.20;;
65924;SDS011;66010;52.084;5.412;2023-07-31T07:36:07;5.85;;;2.22;;
65924;SDS011;66010;52.084;5.412;2023-07-31T07:38:36;5.43;;;2.10;;
65924;SDS011;66010;52.084;5.412;2023-07-31T07:41:03;5.95;;;2.30;;
65924;SDS011;66010;52.084;5.412;2023-07-31T07:43:30;6.75;;;2.20;;
65924;SDS011;66010;52.084;5.412;2023-07-31T07:45:56;5.95;;;2.08;;
65924;SDS011;66010;52.084;5.412;2023-07-31T07:48:23;6.78;;;2.13;;
65924;SDS011;66010;52.084;5.412;2023-07-31T07:50:51;4.85;;;1.95;;
65924;SDS011;66010;52.084;5.412;2023-07-31T07:53:18;6.78;;;2.47;;
65924;SDS011;66010;52.084;5.412;2023-07-31T07:55:44;7.55;;;2.40;;
65924;SDS011;66010;52.084;5.412;2023-07-31T07:58:11;6.03;;;2.40;;
65924;SDS011;66010;52.084;5.412;2023-07-31T08:00:38;5.50;;;2.20;;
65924;SDS011;66010;52.084;5.412;2023-07-31T08:03:04;5.35;;;2.00;;
65924;SDS011;66010;52.084;5.412;2023-07-31T08:05:31;5.07;;;2.00;;
65924;SDS011;66010;52.084;5.412;2023-07-31T08:08:00;5.68;;;2.00;;
65924;SDS011;66010;52.084;5.412;2023-07-31T08:10:27;5.13;;;2.10;;
65924;SDS011;66010;52.084;5.412;2023-07-31T08:12:54;5.88;;;1.98;;
65924;SDS011;66010;52.084;5.412;2023-07-31T08:15:20;5.88;;;1.90;;
65924;SDS011;66010;52.084;5.412;2023-07-31T08:17:47;5.95;;;2.10;;
65924;SDS011;66010;52.084;5.412;2023-07-31T08:20:14;4.97;;;2.17;;
65924;SDS011;66010;52.084;5.412;2023-07-31T08:22:41;3.95;;;1.73;;
65924;SDS011;66010;52.084;5.412;2023-07-31T08:25:07;4.65;;;1.50;;
65924;SDS011;66010;52.084;5.412;2023-07-31T08:27:34;3.58;;;1.75;;
65924;SDS011;66010;52.084;5.412;2023-07-31T08:30:01;4.38;;;1.80;;
65924;SDS011;66010;52.084;5.412;2023-07-31T08:32:27;4.03;;;1.73;;
65924;SDS011;66010;52.084;5.412;2023-07-31T08:34:54;7.05;;;2.00;;
65924;SDS011;66010;52.084;5.412;2023-07-31T08:37:21;5.15;;;1.80;;
65924;SDS011;66010;52.084;5.412;2023-07-31T08:39:50;6.43;;;2.05;;
65924;SDS011;66010;52.084;5.412;2023-07-31T08:42:17;5.10;;;2.00;;
65924;SDS011;66010;52.084;5.412;2023-07-31T08:44:44;3.88;;;1.77;;
65924;SDS011;66010;52.084;5.412;2023-07-31T08:47:11;5.47;;;1.80;;
65924;SDS011;66010;52.084;5.412;2023-07-31T08:49:38;5.63;;;1.70;;
65924;SDS011;66010;52.084;5.412;2023-07-31T08:52:04;3.03;;;1.40;;
65924;SDS011;66010;52.084;5.412;2023-07-31T08:54:31;3.53;;;1.63;;
65924;SDS011;66010;52.084;5.412;2023-07-31T08:56:59;4.57;;;1.63;;
65924;SDS011;66010;52.084;5.412;2023-07-31T08:59:28;4.38;;;2.03;;
65924;SDS011;66010;52.084;5.412;2023-07-31T09:01:55;3.60;;;1.50;;
65924;SDS011;66010;52.084;5.412;2023-07-31T09:04:23;3.67;;;1.70;;
65924;SDS011;66010;52.084;5.412;2023-07-31T09:06:51;4.07;;;1.80;;
65924;SDS011;66010;52.084;5.412;2023-07-31T09:09:19;3.53;;;1.60;;
65924;SDS011;66010;52.084;5.412;2023-07-31T09:11:46;3.35;;;1.42;;
65924;SDS011;66010;52.084;5.412;2023-07-31T09:14:13;5.13;;;1.65;;
65924;SDS011;66010;52.084;5.412;2023-07-31T09:16:56;3.70;;;1.70;;
65924;SDS011;66010;52.084;5.412;2023-07-31T09:19:26;3.05;;;1.50;;
65924;SDS011;66010;52.084;5.412;2023-07-31T09:21:53;3.17;;;1.50;;
65924;SDS011;66010;52.084;5.412;2023-07-31T09:24:26;4.13;;;1.58;;
65924;SDS011;66010;52.084;5.412;2023-07-31T09:26:54;3.40;;;1.50;;
65924;SDS011;66010;52.084;5.412;2023-07-31T09:29:21;3.17;;;1.52;;
65924;SDS011;66010;52.084;5.412;2023-07-31T09:31:48;3.00;;;1.25;;
65924;SDS011;66010;52.084;5.412;2023-07-31T09:34:14;3.80;;;1.60;;
65924;SDS011;66010;52.084;5.412;2023-07-31T09:36:50;3.67;;;1.60;;
65924;SDS011;66010;52.084;5.412;2023-07-31T09:39:18;3.15;;;1.40;;
65924;SDS011;66010;52.084;5.412;2023-07-31T09:41:47;3.30;;;1.40;;
65924;SDS011;66010;52.084;5.412;2023-07-31T09:44:19;2.85;;;1.50;;
65924;SDS011;66010;52.084;5.412;2023-07-31T09:46:46;2.92;;;1.42;;
65924;SDS011;66010;52.084;5.412;2023-07-31T09:49:13;4.15;;;1.50;;
65924;SDS011;66010;52.084;5.412;2023-07-31T09:51:41;3.30;;;1.55;;
65924;SDS011;66010;52.084;5.412;2023-07-31T09:54:14;3.80;;;1.60;;
65924;SDS011;66010;52.084;5.412;2023-07-31T09:59:09;4.78;;;1.60;;
65924;SDS011;66010;52.084;5.412;2023-07-31T10:01:36;3.47;;;1.52;;
65924;SDS011;66010;52.084;5.412;2023-07-31T10:04:04;6.80;;;1.48;;
65924;SDS011;66010;52.084;5.412;2023-07-31T10:06:32;4.07;;;1.38;;
65924;SDS011;66010;52.084;5.412;2023-07-31T10:09:01;4.68;;;1.40;;
65924;SDS011;66010;52.084;5.412;2023-07-31T10:13:54;2.85;;;1.40;;
65924;SDS011;66010;52.084;5.412;2023-07-31T10:16:21;2.53;;;1.30;;
65924;SDS011;66010;52.084;5.412;2023-07-31T10:21:15;3.92;;;1.50;;
65924;SDS011;66010;52.084;5.412;2023-07-31T10:23:41;3.78;;;1.55;;
65924;SDS011;66010;52.084;5.412;2023-07-31T10:28:36;4.70;;;1.80;;
65924;SDS011;66010;52.084;5.412;2023-07-31T10:31:03;4.90;;;1.80;;
65924;SDS011;66010;52.084;5.412;2023-07-31T10:33:29;3.95;;;1.65;;
65924;SDS011;66010;52.084;5.412;2023-07-31T10:36:12;4.68;;;1.65;;
65924;SDS011;66010;52.084;5.412;2023-07-31T10:38:39;4.03;;;1.60;;
65924;SDS011;66010;52.084;5.412;2023-07-31T10:41:09;6.93;;;1.67;;
65924;SDS011;66010;52.084;5.412;2023-07-31T10:43:37;4.70;;;1.67;;
65924;SDS011;66010;52.084;5.412;2023-07-31T10:46:07;4.35;;;1.77;;
65924;SDS011;66010;52.084;5.412;2023-07-31T10:48:35;3.90;;;1.52;;
65924;SDS011;66010;52.084;5.412;2023-07-31T10:53:30;3.70;;;1.73;;
65924;SDS011;66010;52.084;5.412;2023-07-31T10:56:00;3.50;;;1.60;;
65924;SDS011;66010;52.084;5.412;2023-07-31T10:58:27;3.15;;;1.50;;
65924;SDS011;66010;52.084;5.412;2023-07-31T11:00:57;3.33;;;1.60;;
65924;SDS011;66010;52.084;5.412;2023-07-31T11:03:25;3.58;;;1.42;;
65924;SDS011;66010;52.084;5.412;2023-07-31T11:05:53;2.45;;;1.50;;
65924;SDS011;66010;52.084;5.412;2023-07-31T11:11:04;3.53;;;1.50;;
65924;SDS011;66010;52.084;5.412;2023-07-31T11:13:31;4.00;;;1.40;;
65924;SDS011;66010;52.084;5.412;2023-07-31T11:15:57;3.38;;;1.63;;
65924;SDS011;66010;52.084;5.412;2023-07-31T11:18:24;2.50;;;1.50;;
65924;SDS011;66010;52.084;5.412;2023-07-31T11:20:52;2.67;;;1.33;;
65924;SDS011;66010;52.084;5.412;2023-07-31T11:23:19;2.88;;;1.35;;
65924;SDS011;66010;52.084;5.412;2023-07-31T11:25:45;2.97;;;1.38;;
65924;SDS011;66010;52.084;5.412;2023-07-31T11:28:13;2.33;;;1.38;;
65924;SDS011;66010;52.084;5.412;2023-07-31T11:30:40;2.28;;;1.23;;
65924;SDS011;66010;52.084;5.412;2023-07-31T11:33:08;3.80;;;1.60;;
65924;SDS011;66010;52.084;5.412;2023-07-31T11:35:43;3.60;;;1.30;;
65924;SDS011;66010;52.084;5.412;2023-07-31T11:40:41;3.90;;;1.58;;
65924;SDS011;66010;52.084;5.412;2023-07-31T11:45:34;4.38;;;1.45;;
65924;SDS011;66010;52.084;5.412;2023-07-31T11:48:01;3.22;;;1.60;;
65924;SDS011;66010;52.084;5.412;2023-07-31T11:50:29;4.20;;;1.73;;
65924;SDS011;66010;52.084;5.412;2023-07-31T11:53:00;3.47;;;1.50;;
65924;SDS011;66010;52.084;5.412;2023-07-31T11:55:28;4.30;;;1.50;;
65924;SDS011;66010;52.084;5.412;2023-07-31T11:57:55;5.20;;;1.50;;
65924;SDS011;66010;52.084;5.412;2023-07-31T12:00:23;3.30;;;1.50;;
65924;SDS011;66010;52.084;5.412;2023-07-31T12:02:50;3.97;;;1.48;;
65924;SDS011;66010;52.084;5.412;2023-07-31T12:07:51;3.03;;;1.50;;
65924;SDS011;66010;52.084;5.412;2023-07-31T12:15:34;2.75;;;1.40;;
65924;SDS011;66010;52.084;5.412;2023-07-31T12:18:04;3.65;;;1.25;;
65924;SDS011;66010;52.084;5.412;2023-07-31T12:20:33;4.78;;;1.48;;
65924;SDS011;66010;52.084;5.412;2023-07-31T12:23:00;2.72;;;1.55;;
65924;SDS011;66010;52.084;5.412;2023-07-31T12:25:30;3.75;;;1.30;;
65924;SDS011;66010;52.084;5.412;2023-07-31T12:27:57;3.90;;;1.60;;
65924;SDS011;66010;52.084;5.412;2023-07-31T12:30:34;2.40;;;1.30;;
65924;SDS011;66010;52.084;5.412;2023-07-31T12:33:12;2.75;;;1.30;;
65924;SDS011;66010;52.084;5.412;2023-07-31T12:35:43;2.30;;;1.30;;
65924;SDS011;66010;52.084;5.412;2023-07-31T12:38:11;2.10;;;1.20;;
65924;SDS011;66010;52.084;5.412;2023-07-31T12:40:38;2.72;;;1.30;;
65924;SDS011;66010;52.084;5.412;2023-07-31T12:43:05;4.35;;;1.15;;
65924;SDS011;66010;52.084;5.412;2023-07-31T12:45:32;4.40;;;1.35;;
65924;SDS011;66010;52.084;5.412;2023-07-31T12:47:58;2.53;;;1.50;;
65924;SDS011;66010;52.084;5.412;2023-07-31T12:50:25;2.03;;;1.20;;
65924;SDS011;66010;52.084;5.412;2023-07-31T12:52:55;3.28;;;1.20;;
65924;SDS011;66010;52.084;5.412;2023-07-31T12:55:22;2.22;;;1.35;;
65924;SDS011;66010;52.084;5.412;2023-07-31T12:57:49;3.47;;;1.33;;
65924;SDS011;66010;52.084;5.412;2023-07-31T13:00:16;2.75;;;1.30;;
65924;SDS011;66010;52.084;5.412;2023-07-31T13:02:43;2.15;;;1.08;;
65924;SDS011;66010;52.084;5.412;2023-07-31T13:05:09;3.13;;;1.50;;
65924;SDS011;66010;52.084;5.412;2023-07-31T13:07:36;2.88;;;1.48;;
65924;SDS011;66010;52.084;5.412;2023-07-31T13:10:03;2.42;;;1.30;;
65924;SDS011;66010;52.084;5.412;2023-07-31T13:12:30;3.10;;;1.50;;
65924;SDS011;66010;52.084;5.412;2023-07-31T13:14:56;2.40;;;1.20;;
65924;SDS011;66010;52.084;5.412;2023-07-31T13:17:23;2.17;;;1.35;;
65924;SDS011;66010;52.084;5.412;2023-07-31T13:19:50;2.80;;;1.40;;
65924;SDS011;66010;52.084;5.412;2023-07-31T13:22:16;2.30;;;1.33;;
65924;SDS011;66010;52.084;5.412;2023-07-31T13:24:43;2.83;;;1.40;;
65924;SDS011;66010;52.084;5.412;2023-07-31T13:27:09;2.00;;;1.40;;
65924;SDS011;66010;52.084;5.412;2023-07-31T13:29:36;1.88;;;1.25;;
65924;SDS011;66010;52.084;5.412;2023-07-31T13:32:02;2.60;;;1.40;;
65924;SDS011;66010;52.084;5.412;2023-07-31T13:34:29;2.45;;;1.30;;
65924;SDS011;66010;52.084;5.412;2023-07-31T13:36:59;2.35;;;1.05;;
65924;SDS011;66010;52.084;5.412;2023-07-31T13:39:25;3.50;;;1.48;;
65924;SDS011;66010;52.084;5.412;2023-07-31T13:41:53;2.22;;;1.30;;
65924;SDS011;66010;52.084;5.412;2023-07-31T13:44:21;2.00;;;1.33;;
65924;SDS011;66010;52.084;5.412;2023-07-31T13:46:48;3.03;;;1.27;;
65924;SDS011;66010;52.084;5.412;2023-07-31T13:49:15;2.55;;;1.38;;
65924;SDS011;66010;52.084;5.412;2023-07-31T13:51:41;2.28;;;1.33;;
65924;SDS011;66010;52.084;5.412;2023-07-31T13:54:08;1.95;;;1.30;;
65924;SDS011;66010;52.084;5.412;2023-07-31T13:56:34;2.45;;;1.35;;
65924;SDS011;66010;52.084;5.412;2023-07-31T13:59:01;1.80;;;1.33;;
65924;SDS011;66010;52.084;5.412;2023-07-31T14:01:28;4.18;;;1.50;;
65924;SDS011;66010;52.084;5.412;2023-07-31T14:03:54;2.80;;;1.40;;
65924;SDS011;66010;52.084;5.412;2023-07-31T14:06:21;3.65;;;1.70;;
65924;SDS011;66010;52.084;5.412;2023-07-31T14:08:48;2.63;;;1.38;;
65924;SDS011;66010;52.084;5.412;2023-07-31T14:11:14;4.32;;;1.70;;
65924;SDS011;66010;52.084;5.412;2023-07-31T14:13:41;3.45;;;1.55;;
65924;SDS011;66010;52.084;5.412;2023-07-31T14:16:07;3.55;;;1.48;;
65924;SDS011;66010;52.084;5.412;2023-07-31T14:18:34;2.58;;;1.50;;
65924;SDS011;66010;52.084;5.412;2023-07-31T14:21:01;3.97;;;1.52;;
65924;SDS011;66010;52.084;5.412;2023-07-31T14:23:27;2.60;;;1.40;;
65924;SDS011;66010;52.084;5.412;2023-07-31T14:25:54;9.18;;;1.80;;
65924;SDS011;66010;52.084;5.412;2023-07-31T14:28:20;3.88;;;1.80;;
65924;SDS011;66010;52.084;5.412;2023-07-31T14:30:47;4.78;;;1.70;;
65924;SDS011;66010;52.084;5.412;2023-07-31T14:33:13;3.95;;;1.70;;
65924;SDS011;66010;52.084;5.412;2023-07-31T14:35:40;4.95;;;1.80;;
65924;SDS011;66010;52.084;5.412;2023-07-31T14:38:06;5.55;;;2.05;;
65924;SDS011;66010;52.084;5.412;2023-07-31T14:40:33;6.03;;;1.80;;
65924;SDS011;66010;52.084;5.412;2023-07-31T14:42:59;6.47;;;1.90;;
65924;SDS011;66010;52.084;5.412;2023-07-31T14:45:26;3.55;;;1.60;;
65924;SDS011;66010;52.084;5.412;2023-07-31T14:47:53;6.82;;;1.90;;
65924;SDS011;66010;52.084;5.412;2023-07-31T14:50:20;3.72;;;1.60;;
65924;SDS011;66010;52.084;5.412;2023-07-31T14:52:47;5.05;;;1.75;;
65924;SDS011;66010;52.084;5.412;2023-07-31T14:55:14;5.03;;;1.75;;
65924;SDS011;66010;52.084;5.412;2023-07-31T14:57:40;7.95;;;1.80;;
65924;SDS011;66010;52.084;5.412;2023-07-31T15:00:07;6.75;;;1.90;;
65924;SDS011;66010;52.084;5.412;2023-07-31T15:02:34;6.50;;;2.00;;
65924;SDS011;66010;52.084;5.412;2023-07-31T15:05:01;4.03;;;1.90;;
65924;SDS011;66010;52.084;5.412;2023-07-31T15:07:27;4.32;;;1.80;;
65924;SDS011;66010;52.084;5.412;2023-07-31T15:09:54;5.70;;;1.92;;
65924;SDS011;66010;52.084;5.412;2023-07-31T15:12:21;3.15;;;1.63;;
65924;SDS011;66010;52.084;5.412;2023-07-31T15:14:49;4.22;;;2.00;;
65924;SDS011;66010;52.084;5.412;2023-07-31T15:17:18;5.28;;;1.92;;
65924;SDS011;66010;52.084;5.412;2023-07-31T15:19:45;4.45;;;1.70;;
65924;SDS011;66010;52.084;5.412;2023-07-31T15:22:14;5.22;;;1.98;;
65924;SDS011;66010;52.084;5.412;2023-07-31T15:24:45;5.95;;;1.92;;